sensor_id;sensor_type;location;lat;lon;timestamp;pressure;altitude;pressure_sealevel;temperature;humidity
5877;BME280;2964;42.144;24.730;2023-04-28T00:01:24;144475.75;;;11.64;50.54
5877;BME280;2964;42.144;24.730;2023-04-28T00:03:52;144430.50;;;11.46;50.08
5877;BME280;2964;42.144;24.730;2023-04-28T00:06:19;144425.47;;;11.44;49.83
5877;BME280;2964;42.144;24.730;2023-04-28T00:08:46;144453.09;;;11.55;49.01
5877;BME280;2964;42.144;24.730;2023-04-28T00:11:12;144382.72;;;11.26;50.53
5877;BME280;2964;42.144;24.730;2023-04-28T00:13:39;144465.69;;;11.60;50.27
5877;BME280;2964;42.144;24.730;2023-04-28T00:16:06;144450.56;;;11.54;49.87
5877;BME280;2964;42.144;24.730;2023-04-28T00:18:33;144287.22;;;10.87;50.68
5877;BME280;2964;42.144;24.730;2023-04-28T00:21:01;144463.16;;;11.59;49.95
5877;BME280;2964;42.144;24.730;2023-04-28T00:23:28;144468.19;;;11.61;50.46
5877;BME280;2964;42.144;24.730;2023-04-28T00:25:55;144420.41;;;11.42;53.18
5877;BME280;2964;42.144;24.730;2023-04-28T00:28:22;144389.00;;;11.29;52.07
5877;BME280;2964;42.144;24.730;2023-04-28T00:30:48;144381.47;;;11.26;51.59
5877;BME280;2964;42.144;24.730;2023-04-28T00:33:15;144352.53;;;11.14;54.35
5877;BME280;2964;42.144;24.730;2023-04-28T00:35:42;144314.84;;;10.98;52.57
5877;BME280;2964;42.144;24.730;2023-04-28T00:38:10;144343.78;;;11.10;54.46
5877;BME280;2964;42.144;24.730;2023-04-28T00:40:38;144352.53;;;11.14;52.67
5877;BME280;2964;42.144;24.730;2023-04-28T00:43:05;144299.78;;;10.92;52.79
5877;BME280;2964;42.144;24.730;2023-04-28T00:45:32;144299.78;;;10.92;52.26
5877;BME280;2964;42.144;24.730;2023-04-28T00:47:58;144278.41;;;10.84;53.89
5877;BME280;2964;42.144;24.730;2023-04-28T00:50:26;144348.78;;;11.12;51.35
5877;BME280;2964;42.144;24.730;2023-04-28T00:52:52;144324.88;;;11.02;52.03
5877;BME280;2964;42.144;24.730;2023-04-28T00:55:23;144318.63;;;11.00;51.38
5877;BME280;2964;42.144;24.730;2023-04-28T00:57:51;144298.50;;;10.92;52.15
5877;BME280;2964;42.144;24.730;2023-04-28T01:00:20;144338.72;;;11.08;52.18
5877;BME280;2964;42.144;24.730;2023-04-28T01:02:49;144340.00;;;11.09;52.32
5877;BME280;2964;42.144;24.730;2023-04-28T01:05:15;144308.59;;;10.96;52.98
5877;BME280;2964;42.144;24.730;2023-04-28T01:07:42;144307.28;;;10.95;52.25
5877;BME280;2964;42.144;24.730;2023-04-28T01:10:09;144333.69;;;11.06;52.71
5877;BME280;2964;42.144;24.730;2023-04-28T01:12:37;144294.75;;;10.90;53.03
5877;BME280;2964;42.144;24.730;2023-04-28T01:15:05;144231.94;;;10.65;54.21
5877;BME280;2964;42.144;24.730;2023-04-28T01:17:33;144185.44;;;10.46;53.65
5877;BME280;2964;42.144;24.730;2023-04-28T01:20:00;144239.44;;;10.68;53.68
5877;BME280;2964;42.144;24.730;2023-04-28T01:22:26;144169.16;;;10.39;55.48
5877;BME280;2964;42.144;24.730;2023-04-28T01:24:54;144166.59;;;10.38;55.48
5877;BME280;2964;42.144;24.730;2023-04-28T01:27:22;144146.50;;;10.30;56.66
5877;BME280;2964;42.144;24.730;2023-04-28T01:29:49;144126.38;;;10.21;58.55
5877;BME280;2964;42.144;24.730;2023-04-28T01:32:15;144174.16;;;10.41;56.24
5877;BME280;2964;42.144;24.730;2023-04-28T01:34:42;144111.31;;;10.15;56.84
5877;BME280;2964;42.144;24.730;2023-04-28T01:37:09;144088.72;;;10.06;58.53
5877;BME280;2964;42.144;24.730;2023-04-28T01:39:35;144096.28;;;10.09;57.26
5877;BME280;2964;42.144;24.730;2023-04-28T01:42:05;144064.88;;;9.96;59.17
5877;BME280;2964;42.144;24.730;2023-04-28T01:44:31;144008.38;;;9.73;59.00
5877;BME280;2964;42.144;24.730;2023-04-28T01:46:58;144015.91;;;9.76;59.02
5877;BME280;2964;42.144;24.730;2023-04-28T01:49:25;144048.53;;;9.90;58.67
5877;BME280;2964;42.144;24.730;2023-04-28T01:51:52;143992.06;;;9.66;58.84
5877;BME280;2964;42.144;24.730;2023-04-28T01:54:18;144027.19;;;9.81;59.32
5877;BME280;2964;42.144;24.730;2023-04-28T01:56:45;144012.13;;;9.75;58.94
5877;BME280;2964;42.144;24.730;2023-04-28T01:59:13;143990.78;;;9.66;59.56
5877;BME280;2964;42.144;24.730;2023-04-28T02:01:40;143926.78;;;9.40;59.12
5877;BME280;2964;42.144;24.730;2023-04-28T02:04:07;144046.06;;;9.89;58.06
5877;BME280;2964;42.144;24.730;2023-04-28T02:06:33;144020.94;;;9.78;58.29
5877;BME280;2964;42.144;24.730;2023-04-28T02:09:00;143959.41;;;9.53;61.07
5877;BME280;2964;42.144;24.730;2023-04-28T02:11:26;143941.84;;;9.46;59.09
5877;BME280;2964;42.144;24.730;2023-04-28T02:13:53;143970.72;;;9.58;59.12
5877;BME280;2964;42.144;24.730;2023-04-28T02:16:21;144018.41;;;9.77;57.77
5877;BME280;2964;42.144;24.730;2023-04-28T02:18:48;143965.72;;;9.56;58.55
5877;BME280;2964;42.144;24.730;2023-04-28T02:21:15;143993.31;;;9.67;58.99
5877;BME280;2964;42.144;24.730;2023-04-28T02:23:41;143953.16;;;9.51;58.36
5877;BME280;2964;42.144;24.730;2023-04-28T02:26:08;143928.03;;;9.40;59.34
5877;BME280;2964;42.144;24.730;2023-04-28T02:28:35;143744.91;;;8.65;58.80
5877;BME280;2964;42.144;24.730;2023-04-28T02:31:05;143964.44;;;9.55;60.18
5877;BME280;2964;42.144;24.730;2023-04-28T02:33:35;143913.00;;;9.34;58.18
5877;BME280;2964;42.144;24.730;2023-04-28T02:36:02;143964.44;;;9.55;58.30
5877;BME280;2964;42.144;24.730;2023-04-28T02:38:29;143925.53;;;9.39;57.78
5877;BME280;2964;42.144;24.730;2023-04-28T02:40:57;143968.19;;;9.57;57.12
5877;BME280;2964;42.144;24.730;2023-04-28T02:43:24;143946.91;;;9.48;57.93
5877;BME280;2964;42.144;24.730;2023-04-28T02:45:51;143944.38;;;9.47;56.83
5877;BME280;2964;42.144;24.730;2023-04-28T02:48:18;143945.59;;;9.47;58.08
5877;BME280;2964;42.144;24.730;2023-04-28T02:50:46;143955.69;;;9.52;56.73
5877;BME280;2964;42.144;24.730;2023-04-28T02:53:13;143945.59;;;9.47;56.65
5877;BME280;2964;42.144;24.730;2023-04-28T02:55:39;144015.91;;;9.76;55.32
5877;BME280;2964;42.144;24.730;2023-04-28T02:58:06;143939.34;;;9.45;56.04
5877;BME280;2964;42.144;24.730;2023-04-28T03:00:33;143965.72;;;9.56;56.51
5877;BME280;2964;42.144;24.730;2023-04-28T03:03:00;143913.00;;;9.34;56.77
5877;BME280;2964;42.144;24.730;2023-04-28T03:05:27;143904.22;;;9.31;56.47
5877;BME280;2964;42.144;24.730;2023-04-28T03:07:55;143929.31;;;9.41;57.28
5877;BME280;2964;42.144;24.730;2023-04-28T03:10:21;143890.41;;;9.25;57.26
5877;BME280;2964;42.144;24.730;2023-04-28T03:12:48;143907.97;;;9.32;56.47
5877;BME280;2964;42.144;24.730;2023-04-28T03:15:15;143900.44;;;9.29;56.91
5877;BME280;2964;42.144;24.730;2023-04-28T03:17:42;143940.59;;;9.45;55.83
5877;BME280;2964;42.144;24.730;2023-04-28T03:20:09;143870.34;;;9.17;55.35
5877;BME280;2964;42.144;24.730;2023-04-28T03:22:37;143895.41;;;9.27;55.31
5877;BME280;2964;42.144;24.730;2023-04-28T03:25:06;143854.03;;;9.10;55.86
5877;BME280;2964;42.144;24.730;2023-04-28T03:27:32;143895.41;;;9.27;55.35
5877;BME280;2964;42.144;24.730;2023-04-28T03:29:59;143884.16;;;9.22;55.05
5877;BME280;2964;42.144;24.730;2023-04-28T03:32:26;143811.34;;;8.93;57.83
5877;BME280;2964;42.144;24.730;2023-04-28T03:34:52;143862.81;;;9.14;56.20
5877;BME280;2964;42.144;24.730;2023-04-28T03:37:19;143810.09;;;8.92;55.05
5877;BME280;2964;42.144;24.730;2023-04-28T03:39:45;143870.34;;;9.17;55.52
5877;BME280;2964;42.144;24.730;2023-04-28T03:42:14;143771.25;;;8.76;56.76
5877;BME280;2964;42.144;24.730;2023-04-28T03:44:40;143832.69;;;9.01;56.39
5877;BME280;2964;42.144;24.730;2023-04-28T03:47:07;143769.97;;;8.76;57.43
5877;BME280;2964;42.144;24.730;2023-04-28T03:49:34;143790.06;;;8.84;55.23
5877;BME280;2964;42.144;24.730;2023-04-28T03:52:00;143788.75;;;8.83;57.47
5877;BME280;2964;42.144;24.730;2023-04-28T03:54:28;143712.31;;;8.52;57.06
5877;BME280;2964;42.144;24.730;2023-04-28T03:56:55;143833.97;;;9.02;57.37
5877;BME280;2964;42.144;24.730;2023-04-28T03:59:23;143852.78;;;9.10;56.90
5877;BME280;2964;42.144;24.730;2023-04-28T04:01:50;143860.28;;;9.13;56.41
5877;BME280;2964;42.144;24.730;2023-04-28T04:04:16;143889.16;;;9.24;56.45
5877;BME280;2964;42.144;24.730;2023-04-28T04:06:43;143900.44;;;9.29;55.24
5877;BME280;2964;42.144;24.730;2023-04-28T04:09:10;143974.50;;;9.59;55.54
5877;BME280;2964;42.144;24.730;2023-04-28T04:11:36;143892.94;;;9.26;56.61
5877;BME280;2964;42.144;24.730;2023-04-28T04:14:03;143926.78;;;9.40;54.77
5877;BME280;2964;42.144;24.730;2023-04-28T04:16:31;143973.22;;;9.59;54.66
5877;BME280;2964;42.144;24.730;2023-04-28T04:18:58;144025.94;;;9.80;53.96
5877;BME280;2964;42.144;24.730;2023-04-28T04:21:25;144005.88;;;9.72;53.86
5877;BME280;2964;42.144;24.730;2023-04-28T04:23:52;143974.50;;;9.59;53.86
5877;BME280;2964;42.144;24.730;2023-04-28T04:26:18;144056.09;;;9.93;53.11
5877;BME280;2964;42.144;24.730;2023-04-28T04:28:45;144086.19;;;10.05;53.04
5877;BME280;2964;42.144;24.730;2023-04-28T04:31:12;144015.91;;;9.76;54.00
5877;BME280;2964;42.144;24.730;2023-04-28T04:33:40;144078.69;;;10.02;53.33
5877;BME280;2964;42.144;24.730;2023-04-28T04:36:08;144058.56;;;9.94;53.24
5877;BME280;2964;42.144;24.730;2023-04-28T04:38:34;144057.34;;;9.93;53.12
5877;BME280;2964;42.144;24.730;2023-04-28T04:41:01;144097.50;;;10.10;53.18
5877;BME280;2964;42.144;24.730;2023-04-28T04:43:28;144106.31;;;10.13;53.03
5877;BME280;2964;42.144;24.730;2023-04-28T04:45:54;144165.38;;;10.37;52.87
5877;BME280;2964;42.144;24.730;2023-04-28T04:48:21;144126.38;;;10.21;51.40
5877;BME280;2964;42.144;24.730;2023-04-28T04:50:49;144169.16;;;10.39;52.16
5877;BME280;2964;42.144;24.730;2023-04-28T04:53:16;144167.91;;;10.38;52.30
5877;BME280;2964;42.144;24.730;2023-04-28T04:55:42;144210.59;;;10.56;52.15
5877;BME280;2964;42.144;24.730;2023-04-28T04:58:09;144385.25;;;11.27;50.47
5877;BME280;2964;42.144;24.730;2023-04-28T05:00:36;144710.97;;;12.60;48.74
5877;BME280;2964;42.144;24.730;2023-04-28T05:03:03;145029.44;;;13.90;45.37
5877;BME280;2964;42.144;24.730;2023-04-28T05:05:30;145377.28;;;15.32;41.74
5877;BME280;2964;42.144;24.730;2023-04-28T05:07:58;145394.94;;;15.39;41.60
5877;BME280;2964;42.144;24.730;2023-04-28T05:10:26;145763.38;;;16.89;37.83
5877;BME280;2964;42.144;24.730;2023-04-28T05:12:53;145830.28;;;17.16;37.42
5877;BME280;2964;42.144;24.730;2023-04-28T05:15:19;145827.75;;;17.15;35.62
5877;BME280;2964;42.144;24.730;2023-04-28T05:17:46;146209.28;;;18.70;34.15
5877;BME280;2964;42.144;24.730;2023-04-28T05:20:13;146292.78;;;19.04;33.90
5877;BME280;2964;42.144;24.730;2023-04-28T05:22:40;146096.84;;;18.24;34.67
5877;BME280;2964;42.144;24.730;2023-04-28T05:25:08;146299.09;;;19.06;33.50
5877;BME280;2964;42.144;24.730;2023-04-28T05:27:35;146435.63;;;19.62;32.63
5877;BME280;2964;42.144;24.730;2023-04-28T05:30:04;146415.44;;;19.54;32.68
5877;BME280;2964;42.144;24.730;2023-04-28T05:32:33;146453.34;;;19.69;31.68
5877;BME280;2964;42.144;24.730;2023-04-28T05:35:00;146369.91;;;19.35;31.90
5877;BME280;2964;42.144;24.730;2023-04-28T05:37:26;146825.50;;;21.20;30.30
5877;BME280;2964;42.144;24.730;2023-04-28T05:39:53;146600.13;;;20.29;30.84
5877;BME280;2964;42.144;24.730;2023-04-28T05:42:21;146471.13;;;19.76;30.34
5877;BME280;2964;42.144;24.730;2023-04-28T05:44:48;146452.09;;;19.68;31.45
5877;BME280;2964;42.144;24.730;2023-04-28T05:47:14;146331.94;;;19.20;30.88
5877;BME280;2964;42.144;24.730;2023-04-28T05:49:41;146525.50;;;19.98;31.71
5877;BME280;2964;42.144;24.730;2023-04-28T05:52:08;146610.28;;;20.33;29.93
5877;BME280;2964;42.144;24.730;2023-04-28T05:54:34;146838.19;;;21.25;29.36
5877;BME280;2964;42.144;24.730;2023-04-28T05:57:01;147101.72;;;22.32;28.10
5877;BME280;2964;42.144;24.730;2023-04-28T05:59:29;146711.56;;;20.74;29.81
5877;BME280;2964;42.144;24.730;2023-04-28T06:01:56;147141.00;;;22.48;27.81
5877;BME280;2964;42.144;24.730;2023-04-28T06:04:23;147015.53;;;21.97;27.98
5877;BME280;2964;42.144;24.730;2023-04-28T06:06:50;146972.44;;;21.79;28.65
5877;BME280;2964;42.144;24.730;2023-04-28T06:09:17;146962.31;;;21.75;27.81
5877;BME280;2964;42.144;24.730;2023-04-28T06:11:44;147352.75;;;23.34;26.02
5877;BME280;2964;42.144;24.730;2023-04-28T06:14:11;147281.72;;;23.05;26.43
5877;BME280;2964;42.144;24.730;2023-04-28T06:16:39;147322.31;;;23.21;26.29
5877;BME280;2964;42.144;24.730;2023-04-28T06:19:05;147539.25;;;24.09;25.59
5877;BME280;2964;42.144;24.730;2023-04-28T06:21:32;147530.38;;;24.05;25.02
5877;BME280;2964;42.144;24.730;2023-04-28T06:23:59;147983.59;;;25.89;23.26
5877;BME280;2964;42.144;24.730;2023-04-28T06:26:26;147837.56;;;25.30;23.42
5877;BME280;2964;42.144;24.730;2023-04-28T06:28:52;147614.06;;;24.39;24.90
5877;BME280;2964;42.144;24.730;2023-04-28T06:31:19;147010.47;;;21.95;27.54
5877;BME280;2964;42.144;24.730;2023-04-28T06:33:47;147629.28;;;24.45;24.58
5877;BME280;2964;42.144;24.730;2023-04-28T06:36:14;148002.69;;;25.96;23.12
5877;BME280;2964;42.144;24.730;2023-04-28T06:38:42;147633.09;;;24.47;25.33
5877;BME280;2964;42.144;24.730;2023-04-28T06:41:09;148047.16;;;26.14;24.18
5877;BME280;2964;42.144;24.730;2023-04-28T06:43:35;148330.63;;;27.29;21.78
5877;BME280;2964;42.144;24.730;2023-04-28T06:46:02;148183.16;;;26.69;22.62
5877;BME280;2964;42.144;24.730;2023-04-28T06:48:29;147720.72;;;24.82;23.03
5877;BME280;2964;42.144;24.730;2023-04-28T06:50:57;147859.16;;;25.38;22.45
5877;BME280;2964;42.144;24.730;2023-04-28T06:53:23;148085.25;;;26.30;23.35
5877;BME280;2964;42.144;24.730;2023-04-28T06:55:50;148287.41;;;27.11;21.58
5877;BME280;2964;42.144;24.730;2023-04-28T06:58:17;148602.84;;;28.39;21.00
5877;BME280;2964;42.144;24.730;2023-04-28T07:00:45;148641.06;;;28.54;20.93
5877;BME280;2964;42.144;24.730;2023-04-28T07:03:11;148212.38;;;26.81;21.07
5877;BME280;2964;42.144;24.730;2023-04-28T07:05:38;148872.72;;;29.48;20.58
5877;BME280;2964;42.144;24.730;2023-04-28T07:08:06;148773.38;;;29.07;20.29
5877;BME280;2964;42.144;24.730;2023-04-28T07:10:33;148517.63;;;28.04;21.23
5877;BME280;2964;42.144;24.730;2023-04-28T07:12:59;148335.72;;;27.31;21.75
5877;BME280;2964;42.144;24.730;2023-04-28T07:15:26;148406.94;;;27.60;20.26
5877;BME280;2964;42.144;24.730;2023-04-28T07:17:53;147889.59;;;25.51;22.44
5877;BME280;2964;42.144;24.730;2023-04-28T07:20:20;147710.56;;;24.78;24.27
5877;BME280;2964;42.144;24.730;2023-04-28T07:22:46;147827.41;;;25.26;23.22
5877;BME280;2964;42.144;24.730;2023-04-28T07:25:14;148545.59;;;28.16;20.89
5877;BME280;2964;42.144;24.730;2023-04-28T07:27:41;148893.06;;;29.56;18.65
5877;BME280;2964;42.144;24.730;2023-04-28T07:30:08;149186.06;;;30.74;18.73
5877;BME280;2964;42.144;24.730;2023-04-28T07:32:35;148478.13;;;27.88;20.75
5877;BME280;2964;42.144;24.730;2023-04-28T07:35:01;148674.13;;;28.67;19.77
5877;BME280;2964;42.144;24.730;2023-04-28T07:37:28;148345.88;;;27.35;21.60
5877;BME280;2964;42.144;24.730;2023-04-28T07:39:55;148671.59;;;28.66;19.74
5877;BME280;2964;42.144;24.730;2023-04-28T07:42:23;148333.19;;;27.30;20.49
5877;BME280;2964;42.144;24.730;2023-04-28T07:44:50;148694.50;;;28.76;19.88
5877;BME280;2964;42.144;24.730;2023-04-28T07:47:17;148837.06;;;29.33;18.45
5877;BME280;2964;42.144;24.730;2023-04-28T07:49:43;149066.28;;;30.26;18.20
5877;BME280;2964;42.144;24.730;2023-04-28T07:52:10;148021.75;;;26.04;21.26
5877;BME280;2964;42.144;24.730;2023-04-28T07:54:37;148602.84;;;28.39;19.97
5877;BME280;2964;42.144;24.730;2023-04-28T07:57:04;149104.53;;;30.41;17.94
5877;BME280;2964;42.144;24.730;2023-04-28T07:59:32;149104.53;;;30.41;18.70
5877;BME280;2964;42.144;24.730;2023-04-28T08:01:59;149028.09;;;30.10;17.76
5877;BME280;2964;42.144;24.730;2023-04-28T08:04:25;147818.47;;;25.22;21.38
5877;BME280;2964;42.144;24.730;2023-04-28T08:06:52;148475.59;;;27.87;19.34
5877;BME280;2964;42.144;24.730;2023-04-28T08:09:19;148548.16;;;28.17;20.52
5877;BME280;2964;42.144;24.730;2023-04-28T08:11:46;148859.97;;;29.42;18.76
5877;BME280;2964;42.144;24.730;2023-04-28T08:14:12;149497.13;;;31.99;17.48
5877;BME280;2964;42.144;24.730;2023-04-28T08:16:40;148582.47;;;28.30;18.55
5877;BME280;2964;42.144;24.730;2023-04-28T08:19:08;148964.44;;;29.85;18.79
5877;BME280;2964;42.144;24.730;2023-04-28T08:21:35;147963.28;;;25.80;21.48
5877;BME280;2964;42.144;24.730;2023-04-28T08:24:01;148602.84;;;28.39;20.28
5877;BME280;2964;42.144;24.730;2023-04-28T08:26:28;149016.63;;;30.06;19.60
5877;BME280;2964;42.144;24.730;2023-04-28T08:28:55;149207.75;;;30.83;17.60
5877;BME280;2964;42.144;24.730;2023-04-28T08:31:22;149460.16;;;31.84;17.31
5877;BME280;2964;42.144;24.730;2023-04-28T08:33:50;149515.03;;;32.06;17.10
5877;BME280;2964;42.144;24.730;2023-04-28T08:36:17;149633.63;;;32.54;16.28
5877;BME280;2964;42.144;24.730;2023-04-28T08:38:44;149758.66;;;33.04;15.64
5877;BME280;2964;42.144;24.730;2023-04-28T08:41:12;148499.81;;;27.97;19.00
5877;BME280;2964;42.144;24.730;2023-04-28T08:43:39;148951.69;;;29.79;19.27
5877;BME280;2964;42.144;24.730;2023-04-28T08:46:08;149479.28;;;31.92;17.75
5877;BME280;2964;42.144;24.730;2023-04-28T08:48:39;148765.72;;;29.04;18.58
5877;BME280;2964;42.144;24.730;2023-04-28T08:51:07;148979.69;;;29.91;17.62
5877;BME280;2964;42.144;24.730;2023-04-28T08:53:36;148488.38;;;27.92;20.15
5877;BME280;2964;42.144;24.730;2023-04-28T08:56:05;148521.44;;;28.06;20.27
5877;BME280;2964;42.144;24.730;2023-04-28T08:58:35;148623.19;;;28.47;19.94
5877;BME280;2964;42.144;24.730;2023-04-28T09:01:02;148555.75;;;28.20;20.99
5877;BME280;2964;42.144;24.730;2023-04-28T09:03:29;148189.50;;;26.72;22.02
5877;BME280;2964;42.144;24.730;2023-04-28T09:05:57;148200.97;;;26.76;21.55
5877;BME280;2964;42.144;24.730;2023-04-28T09:08:25;147953.09;;;25.76;22.60
5877;BME280;2964;42.144;24.730;2023-04-28T09:11:05;147342.63;;;23.29;24.66
5877;BME280;2964;42.144;24.730;2023-04-28T09:13:33;147987.41;;;25.90;22.78
5877;BME280;2964;42.144;24.730;2023-04-28T09:16:01;148651.22;;;28.58;21.04
5877;BME280;2964;42.144;24.730;2023-04-28T09:18:29;148409.44;;;27.61;21.16
5877;BME280;2964;42.144;24.730;2023-04-28T09:21:04;148587.56;;;28.33;19.92
5877;BME280;2964;42.144;24.730;2023-04-28T09:23:33;148829.41;;;29.30;19.97
5877;BME280;2964;42.144;24.730;2023-04-28T09:26:02;149081.56;;;30.32;17.77
5877;BME280;2964;42.144;24.730;2023-04-28T09:28:29;148786.13;;;29.13;18.94
5877;BME280;2964;42.144;24.730;2023-04-28T09:30:56;148183.16;;;26.69;20.77
5877;BME280;2964;42.144;24.730;2023-04-28T09:33:22;148974.59;;;29.89;18.85
5877;BME280;2964;42.144;24.730;2023-04-28T09:35:49;148585.03;;;28.32;19.30
5877;BME280;2964;42.144;24.730;2023-04-28T09:38:18;148440.00;;;27.73;22.25
5877;BME280;2964;42.144;24.730;2023-04-28T09:40:54;148767.03;;;29.05;19.42
5877;BME280;2964;42.144;24.730;2023-04-28T09:43:29;148586.28;;;28.32;19.73
5877;BME280;2964;42.144;24.730;2023-04-28T09:45:58;147657.28;;;24.57;22.96
5877;BME280;2964;42.144;24.730;2023-04-28T09:48:32;147419.91;;;23.61;25.38
5877;BME280;2964;42.144;24.730;2023-04-28T09:51:01;147317.25;;;23.19;26.86
5877;BME280;2964;42.144;24.730;2023-04-28T09:53:29;147715.63;;;24.80;22.37
5877;BME280;2964;42.144;24.730;2023-04-28T09:55:59;147625.53;;;24.44;22.75
5877;BME280;2964;42.144;24.730;2023-04-28T09:58:27;147967.06;;;25.82;22.85
5877;BME280;2964;42.144;24.730;2023-04-28T10:00:55;147885.84;;;25.49;22.10
5877;BME280;2964;42.144;24.730;2023-04-28T10:03:26;147885.84;;;25.49;22.27
5877;BME280;2964;42.144;24.730;2023-04-28T10:05:53;147725.84;;;24.84;22.76
5877;BME280;2964;42.144;24.730;2023-04-28T10:08:21;147137.19;;;22.46;25.00
5877;BME280;2964;42.144;24.730;2023-04-28T10:10:48;146929.41;;;21.62;26.43
5877;BME280;2964;42.144;24.730;2023-04-28T10:13:18;146357.25;;;19.30;28.41
5877;BME280;2964;42.144;24.730;2023-04-28T10:15:46;146160.03;;;18.50;30.96
5877;BME280;2964;42.144;24.730;2023-04-28T10:18:14;146017.22;;;17.92;31.37
5877;BME280;2964;42.144;24.730;2023-04-28T10:20:43;146122.09;;;18.35;31.82
5877;BME280;2964;42.144;24.730;2023-04-28T10:23:33;146324.38;;;19.17;31.81
5877;BME280;2964;42.144;24.730;2023-04-28T10:26:03;146271.28;;;18.95;31.35
5877;BME280;2964;42.144;24.730;2023-04-28T10:28:36;146247.28;;;18.85;32.24
5877;BME280;2964;42.144;24.730;2023-04-28T10:31:10;146076.59;;;18.16;32.70
5877;BME280;2964;42.144;24.730;2023-04-28T10:33:37;145960.38;;;17.69;32.16
5877;BME280;2964;42.144;24.730;2023-04-28T10:36:05;146014.72;;;17.91;31.27
5877;BME280;2964;42.144;24.730;2023-04-28T10:38:32;146008.38;;;17.88;32.39
5877;BME280;2964;42.144;24.730;2023-04-28T10:41:00;146009.63;;;17.89;33.13
5877;BME280;2964;42.144;24.730;2023-04-28T10:43:38;146182.78;;;18.59;33.45
5877;BME280;2964;42.144;24.730;2023-04-28T10:46:06;146171.38;;;18.55;32.49
5877;BME280;2964;42.144;24.730;2023-04-28T10:48:54;146208.03;;;18.69;32.62
5877;BME280;2964;42.144;24.730;2023-04-28T10:51:28;146167.56;;;18.53;33.59
5877;BME280;2964;42.144;24.730;2023-04-28T10:54:09;146081.66;;;18.18;31.75
5877;BME280;2964;42.144;24.730;2023-04-28T10:56:36;146144.84;;;18.44;33.80
5877;BME280;2964;42.144;24.730;2023-04-28T10:59:24;146160.03;;;18.50;32.10
5877;BME280;2964;42.144;24.730;2023-04-28T11:01:51;146235.88;;;18.81;33.42
5877;BME280;2964;42.144;24.730;2023-04-28T11:04:17;146197.91;;;18.65;34.20
5877;BME280;2964;42.144;24.730;2023-04-28T11:06:45;146225.72;;;18.77;33.85
5877;BME280;2964;42.144;24.730;2023-04-28T11:09:46;146267.47;;;18.94;32.16
5877;BME280;2964;42.144;24.730;2023-04-28T11:12:14;146228.28;;;18.78;33.01
5877;BME280;2964;42.144;24.730;2023-04-28T11:14:42;146244.72;;;18.84;32.67
5877;BME280;2964;42.144;24.730;2023-04-28T11:17:10;146046.31;;;18.04;32.10
5877;BME280;2964;42.144;24.730;2023-04-28T11:19:39;146242.22;;;18.83;31.76
5877;BME280;2964;42.144;24.730;2023-04-28T11:22:15;146132.19;;;18.39;31.14
5877;BME280;2964;42.144;24.730;2023-04-28T11:24:54;146152.44;;;18.47;32.23
5877;BME280;2964;42.144;24.730;2023-04-28T11:27:22;146160.03;;;18.50;32.64
5877;BME280;2964;42.144;24.730;2023-04-28T11:29:50;146056.41;;;18.08;32.39
5877;BME280;2964;42.144;24.730;2023-04-28T11:32:25;146154.94;;;18.48;32.14
5877;BME280;2964;42.144;24.730;2023-04-28T11:34:52;146152.44;;;18.47;33.09
5877;BME280;2964;42.144;24.730;2023-04-28T11:37:19;146185.28;;;18.60;32.20
5877;BME280;2964;42.144;24.730;2023-04-28T11:39:47;146281.38;;;18.99;31.80
5877;BME280;2964;42.144;24.730;2023-04-28T11:42:14;146294.03;;;19.04;31.71
5877;BME280;2964;42.144;24.730;2023-04-28T11:44:48;146326.88;;;19.18;30.72
5877;BME280;2964;42.144;24.730;2023-04-28T11:47:27;146235.88;;;18.81;31.82
5877;BME280;2964;42.144;24.730;2023-04-28T11:49:54;146235.88;;;18.81;33.03
5877;BME280;2964;42.144;24.730;2023-04-28T11:52:20;146084.19;;;18.19;32.28
5877;BME280;2964;42.144;24.730;2023-04-28T11:54:52;146109.44;;;18.29;32.42
5877;BME280;2964;42.144;24.730;2023-04-28T11:57:19;145983.09;;;17.78;32.94
5877;BME280;2964;42.144;24.730;2023-04-28T11:59:47;146010.94;;;17.89;33.81
5877;BME280;2964;42.144;24.730;2023-04-28T12:02:14;145988.16;;;17.80;33.07
5877;BME280;2964;42.144;24.730;2023-04-28T12:04:43;146023.56;;;17.94;33.74
5877;BME280;2964;42.144;24.730;2023-04-28T12:07:11;146055.09;;;18.07;33.49
5877;BME280;2964;42.144;24.730;2023-04-28T12:09:39;146014.72;;;17.91;33.86
5877;BME280;2964;42.144;24.730;2023-04-28T12:12:07;145950.22;;;17.65;32.28
5877;BME280;2964;42.144;24.730;2023-04-28T12:14:52;145942.69;;;17.62;33.13
5877;BME280;2964;42.144;24.730;2023-04-28T12:17:23;145994.44;;;17.83;33.33
5877;BME280;2964;42.144;24.730;2023-04-28T12:19:51;145923.75;;;17.54;34.18
5877;BME280;2964;42.144;24.730;2023-04-28T12:22:18;146052.63;;;18.06;33.01
5877;BME280;2964;42.144;24.730;2023-04-28T12:24:45;146018.47;;;17.92;32.42
5877;BME280;2964;42.144;24.730;2023-04-28T12:27:16;145942.69;;;17.62;34.29
5877;BME280;2964;42.144;24.730;2023-04-28T12:29:44;145983.09;;;17.78;33.38
5877;BME280;2964;42.144;24.730;2023-04-28T12:32:12;145932.53;;;17.58;33.85
5877;BME280;2964;42.144;24.730;2023-04-28T12:34:40;145942.69;;;17.62;34.32
5877;BME280;2964;42.144;24.730;2023-04-28T12:37:08;145877.00;;;17.35;33.87
5877;BME280;2964;42.144;24.730;2023-04-28T12:39:35;145970.47;;;17.73;33.39
5877;BME280;2964;42.144;24.730;2023-04-28T12:42:02;145908.56;;;17.48;34.65
5877;BME280;2964;42.144;24.730;2023-04-28T12:44:34;145909.81;;;17.48;32.45
5877;BME280;2964;42.144;24.730;2023-04-28T12:47:02;145829.03;;;17.15;33.12
5877;BME280;2964;42.144;24.730;2023-04-28T12:49:29;145826.50;;;17.14;33.23
5877;BME280;2964;42.144;24.730;2023-04-28T12:51:57;145893.44;;;17.42;34.24
5877;BME280;2964;42.144;24.730;2023-04-28T12:54:25;145748.25;;;16.83;34.36
5877;BME280;2964;42.144;24.730;2023-04-28T12:56:51;145884.59;;;17.38;34.24
5877;BME280;2964;42.144;24.730;2023-04-28T12:59:22;145907.31;;;17.47;34.36
5877;BME280;2964;42.144;24.730;2023-04-28T13:01:49;145841.63;;;17.21;34.53
5877;BME280;2964;42.144;24.730;2023-04-28T13:04:16;145811.38;;;17.08;35.11
5877;BME280;2964;42.144;24.730;2023-04-28T13:06:43;145863.13;;;17.29;35.84